sensor_id;sensor_type;location;lat;lon;timestamp;temperature;humidity
2861;DHT22;1438;50.922;6.704;2022-09-17T00:00:57;9.70;99.90
2861;DHT22;1438;50.922;6.704;2022-09-17T00:03:24;9.80;99.90
2861;DHT22;1438;50.922;6.704;2022-09-17T00:06:07;9.70;99.90
2861;DHT22;1438;50.922;6.704;2022-09-17T00:08:34;9.70;99.90
2861;DHT22;1438;50.922;6.704;2022-09-17T00:11:14;9.80;99.90
2861;DHT22;1438;50.922;6.704;2022-09-17T00:13:41;9.80;99.90
2861;DHT22;1438;50.922;6.704;2022-09-17T00:16:07;9.80;99.90
2861;DHT22;1438;50.922;6.704;2022-09-17T00:18:33;9.80;99.90
2861;DHT22;1438;50.922;6.704;2022-09-17T00:21:02;9.80;99.90
2861;DHT22;1438;50.922;6.704;2022-09-17T00:23:28;9.90;99.90
2861;DHT22;1438;50.922;6.704;2022-09-17T00:25:53;9.90;99.90
2861;DHT22;1438;50.922;6.704;2022-09-17T00:28:19;9.90;99.90
2861;DHT22;1438;50.922;6.704;2022-09-17T00:30:45;10.00;99.90
2861;DHT22;1438;50.922;6.704;2022-09-17T00:33:13;10.00;99.90
2861;DHT22;1438;50.922;6.704;2022-09-17T00:35:39;10.00;99.90
2861;DHT22;1438;50.922;6.704;2022-09-17T00:38:05;10.10;99.90
2861;DHT22;1438;50.922;6.704;2022-09-17T00:40:30;10.10;99.90
2861;DHT22;1438;50.922;6.704;2022-09-17T00:42:56;10.00;99.90
2861;DHT22;1438;50.922;6.704;2022-09-17T00:45:23;10.00;99.90
2861;DHT22;1438;50.922;6.704;2022-09-17T00:48:01;10.00;99.90
2861;DHT22;1438;50.922;6.704;2022-09-17T00:50:30;10.00;99.90
2861;DHT22;1438;50.922;6.704;2022-09-17T00:55:37;10.00;99.90
2861;DHT22;1438;50.922;6.704;2022-09-17T00:58:06;10.00;99.90
2861;DHT22;1438;50.922;6.704;2022-09-17T01:00:32;10.00;99.90
2861;DHT22;1438;50.922;6.704;2022-09-17T01:02:58;10.00;99.90
2861;DHT22;1438;50.922;6.704;2022-09-17T01:05:52;10.00;99.90
2861;DHT22;1438;50.922;6.704;2022-09-17T01:26:05;9.70;99.90
2861;DHT22;1438;50.922;6.704;2022-09-17T01:29:00;9.70;99.90
2861;DHT22;1438;50.922;6.704;2022-09-17T01:31:47;9.70;99.90
2861;DHT22;1438;50.922;6.704;2022-09-17T01:42:24;9.70;99.90
2861;DHT22;1438;50.922;6.704;2022-09-17T01:47:38;9.70;99.90
2861;DHT22;1438;50.922;6.704;2022-09-17T01:50:08;9.80;99.90
2861;DHT22;1438;50.922;6.704;2022-09-17T01:52:38;9.80;99.90
2861;DHT22;1438;50.922;6.704;2022-09-17T01:55:08;9.80;99.90
2861;DHT22;1438;50.922;6.704;2022-09-17T01:57:47;9.90;99.90
2861;DHT22;1438;50.922;6.704;2022-09-17T02:00:15;9.90;99.90
2861;DHT22;1438;50.922;6.704;2022-09-17T02:02:52;9.90;99.90
2861;DHT22;1438;50.922;6.704;2022-09-17T02:08:08;10.00;99.90
2861;DHT22;1438;50.922;6.704;2022-09-17T02:10:43;10.00;99.90
2861;DHT22;1438;50.922;6.704;2022-09-17T02:13:16;9.90;99.90
2861;DHT22;1438;50.922;6.704;2022-09-17T02:15:50;9.90;99.90
2861;DHT22;1438;50.922;6.704;2022-09-17T02:18:43;9.80;99.90
2861;DHT22;1438;50.922;6.704;2022-09-17T02:21:19;9.80;99.90
2861;DHT22;1438;50.922;6.704;2022-09-17T02:24:11;9.90;99.90
2861;DHT22;1438;50.922;6.704;2022-09-17T02:26:47;9.80;99.90
2861;DHT22;1438;50.922;6.704;2022-09-17T02:29:25;9.80;99.90
2861;DHT22;1438;50.922;6.704;2022-09-17T02:31:54;9.80;99.90
2861;DHT22;1438;50.922;6.704;2022-09-17T02:34:21;9.70;99.90
2861;DHT22;1438;50.922;6.704;2022-09-17T02:36:47;9.70;99.90
2861;DHT22;1438;50.922;6.704;2022-09-17T02:39:13;9.80;99.90
2861;DHT22;1438;50.922;6.704;2022-09-17T02:42:14;9.80;99.90
2861;DHT22;1438;50.922;6.704;2022-09-17T02:44:47;9.80;99.90
2861;DHT22;1438;50.922;6.704;2022-09-17T02:50:22;9.80;99.90
2861;DHT22;1438;50.922;6.704;2022-09-17T03:01:42;9.90;99.90
2861;DHT22;1438;50.922;6.704;2022-09-17T03:04:11;9.90;99.90
2861;DHT22;1438;50.922;6.704;2022-09-17T03:06:38;9.90;99.90
2861;DHT22;1438;50.922;6.704;2022-09-17T03:09:04;9.90;99.90
2861;DHT22;1438;50.922;6.704;2022-09-17T03:11:30;10.00;99.90
2861;DHT22;1438;50.922;6.704;2022-09-17T03:13:56;10.10;99.90
2861;DHT22;1438;50.922;6.704;2022-09-17T03:16:23;10.10;99.90
2861;DHT22;1438;50.922;6.704;2022-09-17T03:18:48;10.20;99.90
2861;DHT22;1438;50.922;6.704;2022-09-17T03:21:14;10.20;99.90
2861;DHT22;1438;50.922;6.704;2022-09-17T03:23:39;10.20;99.90
2861;DHT22;1438;50.922;6.704;2022-09-17T03:26:05;10.20;99.90
2861;DHT22;1438;50.922;6.704;2022-09-17T03:28:31;10.20;99.90
2861;DHT22;1438;50.922;6.704;2022-09-17T03:30:57;10.10;99.90
2861;DHT22;1438;50.922;6.704;2022-09-17T03:33:22;10.10;99.90
2861;DHT22;1438;50.922;6.704;2022-09-17T03:35:48;10.20;99.90
2861;DHT22;1438;50.922;6.704;2022-09-17T03:38:14;10.20;99.90
2861;DHT22;1438;50.922;6.704;2022-09-17T03:40:39;10.10;99.90
2861;DHT22;1438;50.922;6.704;2022-09-17T03:43:06;10.10;99.90
2861;DHT22;1438;50.922;6.704;2022-09-17T03:45:31;10.10;99.90
2861;DHT22;1438;50.922;6.704;2022-09-17T03:47:57;10.20;99.90
2861;DHT22;1438;50.922;6.704;2022-09-17T03:50:23;10.10;99.90
2861;DHT22;1438;50.922;6.704;2022-09-17T03:52:48;10.10;99.90
2861;DHT22;1438;50.922;6.704;2022-09-17T03:55:14;10.10;99.90
2861;DHT22;1438;50.922;6.704;2022-09-17T03:57:42;10.20;99.90
2861;DHT22;1438;50.922;6.704;2022-09-17T04:00:08;10.10;99.90
2861;DHT22;1438;50.922;6.704;2022-09-17T04:02:34;10.20;99.90
2861;DHT22;1438;50.922;6.704;2022-09-17T04:04:59;10.10;99.90
2861;DHT22;1438;50.922;6.704;2022-09-17T04:07:25;10.10;99.90
2861;DHT22;1438;50.922;6.704;2022-09-17T04:09:51;10.00;99.90
2861;DHT22;1438;50.922;6.704;2022-09-17T04:12:16;10.10;99.90
2861;DHT22;1438;50.922;6.704;2022-09-17T04:14:42;10.00;99.90
2861;DHT22;1438;50.922;6.704;2022-09-17T04:17:08;10.00;99.90
2861;DHT22;1438;50.922;6.704;2022-09-17T04:19:33;10.00;99.90
2861;DHT22;1438;50.922;6.704;2022-09-17T04:21:59;9.90;99.90
2861;DHT22;1438;50.922;6.704;2022-09-17T04:24:24;9.80;99.90
2861;DHT22;1438;50.922;6.704;2022-09-17T04:26:50;9.70;99.90
2861;DHT22;1438;50.922;6.704;2022-09-17T04:29:15;9.80;99.90
2861;DHT22;1438;50.922;6.704;2022-09-17T04:31:41;9.70;99.90
2861;DHT22;1438;50.922;6.704;2022-09-17T04:34:07;9.70;99.90
2861;DHT22;1438;50.922;6.704;2022-09-17T04:36:32;9.80;99.90
2861;DHT22;1438;50.922;6.704;2022-09-17T04:38:58;9.70;99.90
2861;DHT22;1438;50.922;6.704;2022-09-17T04:41:23;9.80;99.90
2861;DHT22;1438;50.922;6.704;2022-09-17T04:43:49;9.70;99.90
2861;DHT22;1438;50.922;6.704;2022-09-17T04:46:14;9.80;99.90
2861;DHT22;1438;50.922;6.704;2022-09-17T04:48:41;9.80;99.90
2861;DHT22;1438;50.922;6.704;2022-09-17T04:51:06;9.70;99.90
2861;DHT22;1438;50.922;6.704;2022-09-17T04:53:32;9.80;99.90
2861;DHT22;1438;50.922;6.704;2022-09-17T04:55:58;9.80;99.90
2861;DHT22;1438;50.922;6.704;2022-09-17T04:58:23;9.90;99.90
2861;DHT22;1438;50.922;6.704;2022-09-17T05:00:49;9.90;99.90
2861;DHT22;1438;50.922;6.704;2022-09-17T05:03:15;10.00;99.90
2861;DHT22;1438;50.922;6.704;2022-09-17T05:05:40;10.00;99.90
2861;DHT22;1438;50.922;6.704;2022-09-17T05:08:06;10.10;99.90
2861;DHT22;1438;50.922;6.704;2022-09-17T05:10:33;10.10;99.90
2861;DHT22;1438;50.922;6.704;2022-09-17T05:12:58;10.00;99.90
2861;DHT22;1438;50.922;6.704;2022-09-17T05:15:24;10.20;99.90
2861;DHT22;1438;50.922;6.704;2022-09-17T05:17:51;10.20;99.90
2861;DHT22;1438;50.922;6.704;2022-09-17T05:20:17;10.20;99.90
2861;DHT22;1438;50.922;6.704;2022-09-17T05:22:49;10.20;99.90
2861;DHT22;1438;50.922;6.704;2022-09-17T05:25:18;10.20;99.90
2861;DHT22;1438;50.922;6.704;2022-09-17T05:27:44;10.20;99.90
2861;DHT22;1438;50.922;6.704;2022-09-17T05:30:10;10.20;99.90
2861;DHT22;1438;50.922;6.704;2022-09-17T05:32:36;10.20;99.90
2861;DHT22;1438;50.922;6.704;2022-09-17T05:35:04;10.20;99.90
2861;DHT22;1438;50.922;6.704;2022-09-17T05:37:30;10.30;99.90
2861;DHT22;1438;50.922;6.704;2022-09-17T05:39:55;10.30;99.90
2861;DHT22;1438;50.922;6.704;2022-09-17T05:42:21;10.30;99.90
2861;DHT22;1438;50.922;6.704;2022-09-17T05:44:47;10.40;99.90
2861;DHT22;1438;50.922;6.704;2022-09-17T05:47:12;10.40;99.90
2861;DHT22;1438;50.922;6.704;2022-09-17T05:49:38;10.40;99.90
2861;DHT22;1438;50.922;6.704;2022-09-17T05:52:04;10.50;99.90
2861;DHT22;1438;50.922;6.704;2022-09-17T05:54:29;10.50;99.90
2861;DHT22;1438;50.922;6.704;2022-09-17T05:56:55;10.50;99.90
2861;DHT22;1438;50.922;6.704;2022-09-17T05:59:21;10.60;99.90
2861;DHT22;1438;50.922;6.704;2022-09-17T06:01:46;10.50;99.90
2861;DHT22;1438;50.922;6.704;2022-09-17T06:04:13;10.60;99.90
2861;DHT22;1438;50.922;6.704;2022-09-17T06:06:39;10.60;99.90
2861;DHT22;1438;50.922;6.704;2022-09-17T06:09:06;10.70;99.90
2861;DHT22;1438;50.922;6.704;2022-09-17T06:11:32;10.80;99.90
2861;DHT22;1438;50.922;6.704;2022-09-17T06:13:57;10.90;99.90
2861;DHT22;1438;50.922;6.704;2022-09-17T06:16:23;10.90;99.90
2861;DHT22;1438;50.922;6.704;2022-09-17T06:18:49;10.90;99.90
2861;DHT22;1438;50.922;6.704;2022-09-17T06:21:17;11.10;99.90
2861;DHT22;1438;50.922;6.704;2022-09-17T06:23:43;11.20;99.90
2861;DHT22;1438;50.922;6.704;2022-09-17T06:26:09;11.20;99.90
2861;DHT22;1438;50.922;6.704;2022-09-17T06:28:35;11.20;99.90
2861;DHT22;1438;50.922;6.704;2022-09-17T06:31:03;11.20;99.90
2861;DHT22;1438;50.922;6.704;2022-09-17T06:33:30;11.20;99.90
2861;DHT22;1438;50.922;6.704;2022-09-17T06:36:00;11.20;99.90
2861;DHT22;1438;50.922;6.704;2022-09-17T06:38:29;11.10;99.90
2861;DHT22;1438;50.922;6.704;2022-09-17T06:40:56;11.10;99.90
2861;DHT22;1438;50.922;6.704;2022-09-17T06:43:22;11.20;99.90
2861;DHT22;1438;50.922;6.704;2022-09-17T06:45:52;11.20;99.90
2861;DHT22;1438;50.922;6.704;2022-09-17T06:48:18;11.10;99.90
2861;DHT22;1438;50.922;6.704;2022-09-17T06:50:43;11.10;99.90
2861;DHT22;1438;50.922;6.704;2022-09-17T06:53:09;11.10;99.90
2861;DHT22;1438;50.922;6.704;2022-09-17T06:55:34;11.00;99.90
2861;DHT22;1438;50.922;6.704;2022-09-17T06:58:00;10.90;99.90
2861;DHT22;1438;50.922;6.704;2022-09-17T07:00:26;10.90;99.90
2861;DHT22;1438;50.922;6.704;2022-09-17T07:02:56;10.90;99.90
2861;DHT22;1438;50.922;6.704;2022-09-17T07:05:22;11.00;99.90
2861;DHT22;1438;50.922;6.704;2022-09-17T07:07:48;11.10;99.90
2861;DHT22;1438;50.922;6.704;2022-09-17T07:10:13;11.20;99.90
2861;DHT22;1438;50.922;6.704;2022-09-17T07:12:40;11.20;99.90
2861;DHT22;1438;50.922;6.704;2022-09-17T07:15:06;11.20;99.90
2861;DHT22;1438;50.922;6.704;2022-09-17T07:17:32;11.30;99.90
2861;DHT22;1438;50.922;6.704;2022-09-17T07:19:57;11.30;99.90
2861;DHT22;1438;50.922;6.704;2022-09-17T07:22:24;11.50;99.90
2861;DHT22;1438;50.922;6.704;2022-09-17T07:24:49;11.50;99.90
2861;DHT22;1438;50.922;6.704;2022-09-17T07:27:15;11.50;99.90
2861;DHT22;1438;50.922;6.704;2022-09-17T07:29:40;11.50;99.90
2861;DHT22;1438;50.922;6.704;2022-09-17T07:32:06;11.40;99.90
2861;DHT22;1438;50.922;6.704;2022-09-17T07:34:32;11.40;99.90
2861;DHT22;1438;50.922;6.704;2022-09-17T07:36:57;11.40;99.90
2861;DHT22;1438;50.922;6.704;2022-09-17T07:39:23;11.50;99.90
2861;DHT22;1438;50.922;6.704;2022-09-17T07:41:49;11.60;99.90
2861;DHT22;1438;50.922;6.704;2022-09-17T07:44:14;11.80;99.90
2861;DHT22;1438;50.922;6.704;2022-09-17T07:46:40;11.80;99.90
2861;DHT22;1438;50.922;6.704;2022-09-17T07:49:05;12.00;99.90
2861;DHT22;1438;50.922;6.704;2022-09-17T07:51:31;12.10;99.90
2861;DHT22;1438;50.922;6.704;2022-09-17T07:53:58;12.20;99.90
2861;DHT22;1438;50.922;6.704;2022-09-17T07:56:25;12.30;99.90
2861;DHT22;1438;50.922;6.704;2022-09-17T07:58:51;12.40;99.90
2861;DHT22;1438;50.922;6.704;2022-09-17T08:01:17;12.40;99.90
2861;DHT22;1438;50.922;6.704;2022-09-17T08:03:50;12.40;99.90
2861;DHT22;1438;50.922;6.704;2022-09-17T08:06:20;12.50;99.90
2861;DHT22;1438;50.922;6.704;2022-09-17T08:08:46;12.60;99.90
2861;DHT22;1438;50.922;6.704;2022-09-17T08:11:14;12.70;99.90
2861;DHT22;1438;50.922;6.704;2022-09-17T08:13:40;12.70;99.90
2861;DHT22;1438;50.922;6.704;2022-09-17T08:16:08;12.70;99.90
2861;DHT22;1438;50.922;6.704;2022-09-17T08:18:35;12.70;99.90
2861;DHT22;1438;50.922;6.704;2022-09-17T08:21:02;12.80;99.90
2861;DHT22;1438;50.922;6.704;2022-09-17T08:23:29;13.00;99.90
2861;DHT22;1438;50.922;6.704;2022-09-17T08:25:58;13.10;99.90
2861;DHT22;1438;50.922;6.704;2022-09-17T08:28:27;13.10;99.90
2861;DHT22;1438;50.922;6.704;2022-09-17T08:30:53;13.20;99.90
2861;DHT22;1438;50.922;6.704;2022-09-17T08:33:19;13.30;99.90
2861;DHT22;1438;50.922;6.704;2022-09-17T08:35:55;13.30;99.90
2861;DHT22;1438;50.922;6.704;2022-09-17T08:38:24;13.50;99.90
2861;DHT22;1438;50.922;6.704;2022-09-17T08:41:17;13.70;99.90
2861;DHT22;1438;50.922;6.704;2022-09-17T08:46:32;13.80;99.90
2861;DHT22;1438;50.922;6.704;2022-09-17T08:49:06;13.90;99.90
2861;DHT22;1438;50.922;6.704;2022-09-17T08:59:50;14.40;99.90
2861;DHT22;1438;50.922;6.704;2022-09-17T09:05:50;14.10;99.90
2861;DHT22;1438;50.922;6.704;2022-09-17T09:11:04;14.80;99.90
2861;DHT22;1438;50.922;6.704;2022-09-17T09:13:42;15.00;99.90
2861;DHT22;1438;50.922;6.704;2022-09-17T09:16:19;14.90;99.90
2861;DHT22;1438;50.922;6.704;2022-09-17T09:18:50;15.00;99.90
2861;DHT22;1438;50.922;6.704;2022-09-17T09:24:22;15.00;99.90
2861;DHT22;1438;50.922;6.704;2022-09-17T09:34:16;15.60;99.90
2861;DHT22;1438;50.922;6.704;2022-09-17T09:36:42;15.50;99.90
2861;DHT22;1438;50.922;6.704;2022-09-17T09:44:14;15.80;99.90
2861;DHT22;1438;50.922;6.704;2022-09-17T09:54:54;16.20;99.90
2861;DHT22;1438;50.922;6.704;2022-09-17T09:57:51;16.30;99.90
2861;DHT22;1438;50.922;6.704;2022-09-17T10:00:30;15.60;99.90
2861;DHT22;1438;50.922;6.704;2022-09-17T10:05:29;15.50;99.90
2861;DHT22;1438;50.922;6.704;2022-09-17T10:07:55;15.80;99.90
2861;DHT22;1438;50.922;6.704;2022-09-17T10:10:21;16.90;99.90
2861;DHT22;1438;50.922;6.704;2022-09-17T10:12:47;17.30;99.90
2861;DHT22;1438;50.922;6.704;2022-09-17T10:15:27;17.00;99.90
2861;DHT22;1438;50.922;6.704;2022-09-17T10:18:16;15.90;99.90
2861;DHT22;1438;50.922;6.704;2022-09-17T10:20:59;15.40;99.90
2861;DHT22;1438;50.922;6.704;2022-09-17T10:23:27;15.10;99.90
2861;DHT22;1438;50.922;6.704;2022-09-17T10:25:54;14.90;99.90
2861;DHT22;1438;50.922;6.704;2022-09-17T10:28:38;14.90;99.90
2861;DHT22;1438;50.922;6.704;2022-09-17T10:31:08;16.00;99.90
2861;DHT22;1438;50.922;6.704;2022-09-17T10:33:38;16.70;99.90
2861;DHT22;1438;50.922;6.704;2022-09-17T10:36:12;16.10;99.90
2861;DHT22;1438;50.922;6.704;2022-09-17T10:41:11;14.80;99.90
2861;DHT22;1438;50.922;6.704;2022-09-17T10:43:38;14.60;99.90
2861;DHT22;1438;50.922;6.704;2022-09-17T10:46:04;15.00;99.90
2861;DHT22;1438;50.922;6.704;2022-09-17T10:48:36;15.40;99.90
2861;DHT22;1438;50.922;6.704;2022-09-17T10:51:02;15.80;99.90
2861;DHT22;1438;50.922;6.704;2022-09-17T10:53:30;15.80;99.90
2861;DHT22;1438;50.922;6.704;2022-09-17T10:56:17;15.90;99.90
2861;DHT22;1438;50.922;6.704;2022-09-17T10:58:55;16.10;99.90
2861;DHT22;1438;50.922;6.704;2022-09-17T11:04:20;16.40;99.90
2861;DHT22;1438;50.922;6.704;2022-09-17T11:06:57;16.30;99.90
2861;DHT22;1438;50.922;6.704;2022-09-17T11:12:14;16.40;99.90
2861;DHT22;1438;50.922;6.704;2022-09-17T11:14:59;16.30;99.90
2861;DHT22;1438;50.922;6.704;2022-09-17T11:20:19;16.50;99.90
2861;DHT22;1438;50.922;6.704;2022-09-17T11:25:58;16.90;99.90
2861;DHT22;1438;50.922;6.704;2022-09-17T11:28:47;16.80;99.90
2861;DHT22;1438;50.922;6.704;2022-09-17T11:31:44;15.50;99.90
2861;DHT22;1438;50.922;6.704;2022-09-17T11:34:27;13.80;99.90
2861;DHT22;1438;50.922;6.704;2022-09-17T11:37:05;13.00;99.90
2861;DHT22;1438;50.922;6.704;2022-09-17T11:39:48;12.70;99.90
2861;DHT22;1438;50.922;6.704;2022-09-17T11:42:19;12.60;99.90
2861;DHT22;1438;50.922;6.704;2022-09-17T11:45:02;12.70;99.90
2861;DHT22;1438;50.922;6.704;2022-09-17T11:47:35;12.90;99.90
2861;DHT22;1438;50.922;6.704;2022-09-17T11:50:20;13.10;99.90
2861;DHT22;1438;50.922;6.704;2022-09-17T11:55:37;13.20;99.90
2861;DHT22;1438;50.922;6.704;2022-09-17T12:00:58;13.60;99.90
2861;DHT22;1438;50.922;6.704;2022-09-17T12:03:35;14.00;99.90
2861;DHT22;1438;50.922;6.704;2022-09-17T12:06:12;14.30;99.90
2861;DHT22;1438;50.922;6.704;2022-09-17T12:11:22;15.00;99.90
2861;DHT22;1438;50.922;6.704;2022-09-17T12:13:54;15.00;99.90
2861;DHT22;1438;50.922;6.704;2022-09-17T12:16:25;14.80;99.90
2861;DHT22;1438;50.922;6.704;2022-09-17T12:18:58;14.30;99.90
2861;DHT22;1438;50.922;6.704;2022-09-17T12:21:37;14.00;99.90
2861;DHT22;1438;50.922;6.704;2022-09-17T12:24:30;14.40;99.90
2861;DHT22;1438;50.922;6.704;2022-09-17T12:30:02;15.30;99.90
2861;DHT22;1438;50.922;6.704;2022-09-17T12:40:50;16.20;99.90
2861;DHT22;1438;50.922;6.704;2022-09-17T12:51:49;16.40;99.90
2861;DHT22;1438;50.922;6.704;2022-09-17T12:57:43;16.60;99.90
2861;DHT22;1438;50.922;6.704;2022-09-17T13:00:13;16.60;99.90
2861;DHT22;1438;50.922;6.704;2022-09-17T13:02:54;16.40;99.90
2861;DHT22;1438;50.922;6.704;2022-09-17T13:05:38;16.20;99.90
2861;DHT22;1438;50.922;6.704;2022-09-17T13:19:26;15.60;99.90
2861;DHT22;1438;50.922;6.704;2022-09-17T13:22:05;15.90;99.90
2861;DHT22;1438;50.922;6.704;2022-09-17T13:24:35;16.30;99.90
2861;DHT22;1438;50.922;6.704;2022-09-17T13:27:03;16.70;99.90
2861;DHT22;1438;50.922;6.704;2022-09-17T13:37:57;17.20;99.90
2861;DHT22;1438;50.922;6.704;2022-09-17T13:40:31;17.40;99.90
2861;DHT22;1438;50.922;6.704;2022-09-17T13:48:20;18.30;99.90
2861;DHT22;1438;50.922;6.704;2022-09-17T13:50:47;18.60;99.90
2861;DHT22;1438;50.922;6.704;2022-09-17T13:58:25;17.60;99.90
2861;DHT22;1438;50.922;6.704;2022-09-17T14:01:11;17.00;99.90
2861;DHT22;1438;50.922;6.704;2022-09-17T14:21:42;17.70;99.90
2861;DHT22;1438;50.922;6.704;2022-09-17T14:32:46;16.70;99.90
2861;DHT22;1438;50.922;6.704;2022-09-17T14:41:05;15.60;99.90
2861;DHT22;1438;50.922;6.704;2022-09-17T14:43:57;15.50;99.90
2861;DHT22;1438;50.922;6.704;2022-09-17T14:51:43;15.70;99.90
2861;DHT22;1438;50.922;6.704;2022-09-17T14:54:26;15.80;99.90
2861;DHT22;1438;50.922;6.704;2022-09-17T14:59:25;16.00;99.90
2861;DHT22;1438;50.922;6.704;2022-09-17T15:01:51;16.00;99.90
2861;DHT22;1438;50.922;6.704;2022-09-17T15:04:22;15.90;99.90
2861;DHT22;1438;50.922;6.704;2022-09-17T15:06:48;15.60;99.90
2861;DHT22;1438;50.922;6.704;2022-09-17T15:09:25;15.40;99.90
2861;DHT22;1438;50.922;6.704;2022-09-17T15:11:54;15.00;99.90
2861;DHT22;1438;50.922;6.704;2022-09-17T15:14:35;14.70;99.90
2861;DHT22;1438;50.922;6.704;2022-09-17T15:17:04;14.10;99.90
2861;DHT22;1438;50.922;6.704;2022-09-17T15:21:59;12.70;99.90
2861;DHT22;1438;50.922;6.704;2022-09-17T15:24:46;12.10;99.90
2861;DHT22;1438;50.922;6.704;2022-09-17T15:27:22;11.80;99.90
2861;DHT22;1438;50.922;6.704;2022-09-17T15:30:13;11.20;99.90
2861;DHT22;1438;50.922;6.704;2022-09-17T15:32:47;10.80;99.90
2861;DHT22;1438;50.922;6.704;2022-09-17T15:37:47;10.50;99.90
2861;DHT22;1438;50.922;6.704;2022-09-17T15:40:22;10.50;99.90
2861;DHT22;1438;50.922;6.704;2022-09-17T15:42:50;10.60;99.90
2861;DHT22;1438;50.922;6.704;2022-09-17T15:45:21;10.70;99.90
2861;DHT22;1438;50.922;6.704;2022-09-17T15:47:52;10.50;99.90
2861;DHT22;1438;50.922;6.704;2022-09-17T15:50:24;10.60;99.90
2861;DHT22;1438;50.922;6.704;2022-09-17T15:53:49;10.60;99.90
2861;DHT22;1438;50.922;6.704;2022-09-17T15:55:44;10.80;99.90
2861;DHT22;1438;50.922;6.704;2022-09-17T15:58:24;11.10;99.90
2861;DHT22;1438;50.922;6.704;2022-09-17T16:08:45;11.10;99.90
2861;DHT22;1438;50.922;6.704;2022-09-17T16:11:19;11.10;99.90
2861;DHT22;1438;50.922;6.704;2022-09-17T16:13:48;11.10;99.90
2861;DHT22;1438;50.922;6.704;2022-09-17T16:16:17;11.10;99.90
2861;DHT22;1438;50.922;6.704;2022-09-17T16:18:42;11.10;99.90
2861;DHT22;1438;50.922;6.704;2022-09-17T16:21:12;11.20;99.90
2861;DHT22;1438;50.922;6.704;2022-09-17T16:23:38;11.20;99.90
2861;DHT22;1438;50.922;6.704;2022-09-17T16:26:04;11.30;99.90
2861;DHT22;1438;50.922;6.704;2022-09-17T16:28:31;11.30;99.90
2861;DHT22;1438;50.922;6.704;2022-09-17T16:30:58;11.30;99.90
2861;DHT22;1438;50.922;6.704;2022-09-17T16:33:23;11.30;99.90
2861;DHT22;1438;50.922;6.704;2022-09-17T16:35:56;11.30;99.90
2861;DHT22;1438;50.922;6.704;2022-09-17T16:38:21;11.30;99.90
2861;DHT22;1438;50.922;6.704;2022-09-17T16:40:47;11.30;99.90
2861;DHT22;1438;50.922;6.704;2022-09-17T16:43:13;11.40;99.90
2861;DHT22;1438;50.922;6.704;2022-09-17T16:45:39;11.60;99.90
2861;DHT22;1438;50.922;6.704;2022-09-17T16:48:05;11.60;99.90
2861;DHT22;1438;50.922;6.704;2022-09-17T16:50:31;11.70;99.90
2861;DHT22;1438;50.922;6.704;2022-09-17T16:52:57;11.80;99.90
2861;DHT22;1438;50.922;6.704;2022-09-17T16:55:23;11.70;99.90
2861;DHT22;1438;50.922;6.704;2022-09-17T16:57:49;11.60;99.90
2861;DHT22;1438;50.922;6.704;2022-09-17T17:00:17;11.60;99.90
2861;DHT22;1438;50.922;6.704;2022-09-17T17:02:51;11.60;99.90
2861;DHT22;1438;50.922;6.704;2022-09-17T17:05:17;11.60;99.90
2861;DHT22;1438;50.922;6.704;2022-09-17T17:07:43;11.50;99.90
2861;DHT22;1438;50.922;6.704;2022-09-17T17:10:09;11.50;99.90
2861;DHT22;1438;50.922;6.704;2022-09-17T17:12:35;11.40;99.90
2861;DHT22;1438;50.922;6.704;2022-09-17T17:15:01;11.40;99.90
2861;DHT22;1438;50.922;6.704;2022-09-17T17:17:27;11.40;99.90
2861;DHT22;1438;50.922;6.704;2022-09-17T17:19:53;11.40;99.90
2861;DHT22;1438;50.922;6.704;2022-09-17T17:22:19;11.40;99.90
2861;DHT22;1438;50.922;6.704;2022-09-17T17:24:44;11.30;99.90
2861;DHT22;1438;50.922;6.704;2022-09-17T17:27:10;11.30;99.90
2861;DHT22;1438;50.922;6.704;2022-09-17T17:29:37;11.30;99.90
2861;DHT22;1438;50.922;6.704;2022-09-17T17:32:03;11.30;99.90
2861;DHT22;1438;50.922;6.704;2022-09-17T17:34:29;11.30;99.90
2861;DHT22;1438;50.922;6.704;2022-09-17T17:36:56;11.30;99.90
2861;DHT22;1438;50.922;6.704;2022-09-17T17:39:22;11.30;99.90
2861;DHT22;1438;50.922;6.704;2022-09-17T17:41:47;11.30;99.90
2861;DHT22;1438;50.922;6.704;2022-09-17T17:44:13;11.30;99.90
2861;DHT22;1438;50.922;6.704;2022-09-17T17:46:39;11.30;99.90
2861;DHT22;1438;50.922;6.704;2022-09-17T17:49:06;11.20;99.90
2861;DHT22;1438;50.922;6.704;2022-09-17T17:51:32;11.10;99.90
2861;DHT22;1438;50.922;6.704;2022-09-17T17:53:58;11.10;99.90
2861;DHT22;1438;50.922;6.704;2022-09-17T17:56:23;11.10;99.90
2861;DHT22;1438;50.922;6.704;2022-09-17T17:58:56;11.10;99.90
2861;DHT22;1438;50.922;6.704;2022-09-17T18:01:29;11.10;99.90
2861;DHT22;1438;50.922;6.704;2022-09-17T18:03:57;11.00;99.90
2861;DHT22;1438;50.922;6.704;2022-09-17T18:06:23;11.00;99.90
2861;DHT22;1438;50.922;6.704;2022-09-17T18:08:49;10.90;99.90
2861;DHT22;1438;50.922;6.704;2022-09-17T18:11:14;10.90;99.90
2861;DHT22;1438;50.922;6.704;2022-09-17T18:13:40;10.80;99.90
2861;DHT22;1438;50.922;6.704;2022-09-17T18:16:07;10.90;99.90
2861;DHT22;1438;50.922;6.704;2022-09-17T18:18:41;10.80;99.90
2861;DHT22;1438;50.922;6.704;2022-09-17T18:21:09;10.80;99.90
2861;DHT22;1438;50.922;6.704;2022-09-17T18:23:37;10.80;99.90
2861;DHT22;1438;50.922;6.704;2022-09-17T18:26:05;10.80;99.90
2861;DHT22;1438;50.922;6.704;2022-09-17T18:28:33;10.80;99.90
2861;DHT22;1438;50.922;6.704;2022-09-17T18:31:13;10.80;99.90
2861;DHT22;1438;50.922;6.704;2022-09-17T18:33:42;10.80;99.90
2861;DHT22;1438;50.922;6.704;2022-09-17T18:36:08;10.70;99.90
2861;DHT22;1438;50.922;6.704;2022-09-17T18:38:35;10.60;99.90
2861;DHT22;1438;50.922;6.704;2022-09-17T18:41:04;10.40;99.90
2861;DHT22;1438;50.922;6.704;2022-09-17T18:43:32;10.40;99.90
2861;DHT22;1438;50.922;6.704;2022-09-17T18:45:57;10.40;99.90
2861;DHT22;1438;50.922;6.704;2022-09-17T18:48:23;10.50;99.90
2861;DHT22;1438;50.922;6.704;2022-09-17T18:53:22;10.60;99.90
2861;DHT22;1438;50.922;6.704;2022-09-17T18:55:47;10.60;99.90
2861;DHT22;1438;50.922;6.704;2022-09-17T18:58:13;10.60;99.90
2861;DHT22;1438;50.922;6.704;2022-09-17T19:00:41;10.60;99.90
2861;DHT22;1438;50.922;6.704;2022-09-17T19:03:07;10.60;99.90
2861;DHT22;1438;50.922;6.704;2022-09-17T19:05:33;10.60;99.90
2861;DHT22;1438;50.922;6.704;2022-09-17T19:07:58;10.70;99.90
2861;DHT22;1438;50.922;6.704;2022-09-17T19:10:24;10.70;99.90
2861;DHT22;1438;50.922;6.704;2022-09-17T19:12:50;10.70;99.90
2861;DHT22;1438;50.922;6.704;2022-09-17T19:15:16;10.70;99.90
2861;DHT22;1438;50.922;6.704;2022-09-17T19:17:42;10.80;99.90
2861;DHT22;1438;50.922;6.704;2022-09-17T19:20:07;10.90;99.90
2861;DHT22;1438;50.922;6.704;2022-09-17T19:22:33;10.90;99.90
2861;DHT22;1438;50.922;6.704;2022-09-17T19:24:58;10.90;99.90
2861;DHT22;1438;50.922;6.704;2022-09-17T19:27:24;11.00;99.90
2861;DHT22;1438;50.922;6.704;2022-09-17T19:29:50;11.00;99.90
2861;DHT22;1438;50.922;6.704;2022-09-17T19:32:16;11.10;99.90
2861;DHT22;1438;50.922;6.704;2022-09-17T19:34:41;11.00;99.90
2861;DHT22;1438;50.922;6.704;2022-09-17T19:37:07;11.00;99.90
2861;DHT22;1438;50.922;6.704;2022-09-17T19:39:33;11.00;99.90
2861;DHT22;1438;50.922;6.704;2022-09-17T19:41:59;11.10;99.90
2861;DHT22;1438;50.922;6.704;2022-09-17T19:44:25;11.10;99.90
2861;DHT22;1438;50.922;6.704;2022-09-17T19:46:50;11.20;99.90
2861;DHT22;1438;50.922;6.704;2022-09-17T19:49:18;11.20;99.90
2861;DHT22;1438;50.922;6.704;2022-09-17T19:51:43;11.20;99.90
2861;DHT22;1438;50.922;6.704;2022-09-17T19:54:09;11.10;99.90
2861;DHT22;1438;50.922;6.704;2022-09-17T19:56:35;11.10;99.90
2861;DHT22;1438;50.922;6.704;2022-09-17T19:59:01;11.10;99.90